createdAt,value
2022-11-12T00:04:55.981Z,7.05
2022-11-12T00:09:58.551Z,11.13
2022-11-12T00:15:02.668Z,10.13
2022-11-12T00:20:06.645Z,6.90
2022-11-12T00:25:09.898Z,6.20
2022-11-12T00:30:14.692Z,6.55
2022-11-12T00:35:17.696Z,5.40
2022-11-12T00:40:20.255Z,5.88
2022-11-12T00:45:24.778Z,5.18
2022-11-12T00:55:29.854Z,8.68
2022-11-12T01:00:33.738Z,9.40
2022-11-12T01:05:36.312Z,8.80
2022-11-12T01:10:38.986Z,9.85
2022-11-12T01:15:43.712Z,8.75
2022-11-12T01:20:46.258Z,8.30
2022-11-12T01:25:48.829Z,11.48
2022-11-12T01:30:52.791Z,9.07
2022-11-12T01:35:59.553Z,7.07
2022-11-12T01:41:02.176Z,6.53
2022-11-12T01:46:09.378Z,5.82
2022-11-12T01:51:14.003Z,5.78
2022-11-12T01:56:18.267Z,4.22
2022-11-12T02:01:22.293Z,4.45
2022-11-12T02:06:25.932Z,3.83
2022-11-12T02:11:28.532Z,3.80
2022-11-12T02:16:35.452Z,7.05
2022-11-12T02:21:39.683Z,5.35
2022-11-12T02:26:45.833Z,4.22
2022-11-12T02:31:48.760Z,5.57
2022-11-12T02:36:52.632Z,5.43
2022-11-12T02:41:55.190Z,7.20
2022-11-12T02:46:57.815Z,4.68
2022-11-12T02:52:01.761Z,6.68
2022-11-12T02:57:04.549Z,3.33
2022-11-12T03:02:07.155Z,5.90
2022-11-12T03:07:11.115Z,6.57
2022-11-12T03:12:13.741Z,5.53
2022-11-12T03:17:16.281Z,4.35
2022-11-12T03:22:20.193Z,5.25
2022-11-12T03:27:22.750Z,7.93
2022-11-12T03:32:26.016Z,4.25
2022-11-12T03:37:30.081Z,5.38
2022-11-12T03:42:32.663Z,3.75
2022-11-12T03:47:35.277Z,6.80
2022-11-12T03:52:40.028Z,7.50
2022-11-12T03:57:43.037Z,7.93
2022-11-12T04:02:45.867Z,4.45
2022-11-12T04:08:14.661Z,6.82
2022-11-12T04:13:29.396Z,6.55
2022-11-12T04:23:53.348Z,9.93
2022-11-12T04:29:13.670Z,6.53
2022-11-12T04:34:31.732Z,9.05
2022-11-12T04:39:36.223Z,5.93
2022-11-12T04:45:01.208Z,5.75
2022-11-12T04:50:05.593Z,6.25
2022-11-12T04:55:10.889Z,5.10
2022-11-12T05:00:14.560Z,8.73
2022-11-12T05:05:17.701Z,8.23
2022-11-12T05:10:21.635Z,6.60
2022-11-12T05:15:24.754Z,5.28
2022-11-12T05:20:27.461Z,7.47
2022-11-12T05:25:31.344Z,9.80
2022-11-12T05:30:33.931Z,7.07
2022-11-12T05:35:36.518Z,7.15
2022-11-12T05:40:45.502Z,9.25
2022-11-12T05:45:48.093Z,6.78
2022-11-12T05:51:12.050Z,7.90
2022-11-12T05:56:15.176Z,9.93
2022-11-12T06:01:17.783Z,7.05
2022-11-12T06:06:20.494Z,7.80
2022-11-12T06:11:24.454Z,8.88
2022-11-12T06:16:27.221Z,6.80
2022-11-12T06:21:29.914Z,9.45
2022-11-12T06:26:33.926Z,9.57
2022-11-12T06:31:36.695Z,5.90
2022-11-12T06:36:39.403Z,8.25
2022-11-12T06:41:43.321Z,8.90
2022-11-12T06:46:45.951Z,6.88
2022-11-12T06:51:51.560Z,7.65
2022-11-12T06:56:55.575Z,6.25
2022-11-12T07:01:58.306Z,4.75
2022-11-12T07:07:01.042Z,7.82
2022-11-12T07:12:05.551Z,7.55
2022-11-12T07:17:08.183Z,7.50
2022-11-12T07:22:10.821Z,8.27
2022-11-12T07:27:15.052Z,8.88
2022-11-12T07:32:17.653Z,6.20
2022-11-12T07:37:20.385Z,9.65
2022-11-12T07:42:24.359Z,10.98
2022-11-12T07:47:27.278Z,9.52
2022-11-12T07:52:29.903Z,14.52
2022-11-12T07:57:35.033Z,16.13
2022-11-12T08:02:37.675Z,21.65
2022-11-12T08:07:40.438Z,11.38
2022-11-12T08:12:44.495Z,13.13
2022-11-12T08:17:47.112Z,10.52
2022-11-12T08:22:49.875Z,8.88
2022-11-12T08:27:58.327Z,10.52
2022-11-12T08:33:03.274Z,7.53
2022-11-12T08:38:07.828Z,9.10
2022-11-12T08:43:12.972Z,6.53
2022-11-12T08:48:17.364Z,9.55
2022-11-12T08:53:20.189Z,6.78
2022-11-12T08:58:25.023Z,9.13
2022-11-12T09:03:27.903Z,8.00
2022-11-12T09:08:30.865Z,9.13
2022-11-12T09:13:35.719Z,7.95
2022-11-12T09:18:38.768Z,10.00
2022-11-12T09:23:41.702Z,6.82
2022-11-12T09:28:45.671Z,7.43
2022-11-12T09:33:48.253Z,7.65
2022-11-12T09:38:50.789Z,7.05
2022-11-12T09:44:01.039Z,7.25
2022-11-12T09:49:11.240Z,6.68
2022-11-12T09:54:21.883Z,7.20
2022-11-12T09:59:30.646Z,9.68
2022-11-12T10:04:55.407Z,9.23
2022-11-12T10:15:46.415Z,7.10
2022-11-12T10:20:56.021Z,8.75
2022-11-12T10:26:02.348Z,9.13
2022-11-12T10:31:13.438Z,8.77
2022-11-12T10:36:26.253Z,6.03
2022-11-12T10:41:31.449Z,7.68
2022-11-12T10:46:37.451Z,9.20
2022-11-12T10:51:40.450Z,9.68
2022-11-12T10:56:43.078Z,7.88
2022-11-12T11:01:54.717Z,7.35
2022-11-12T11:07:06.706Z,6.65
2022-11-12T11:12:24.620Z,6.78
2022-11-12T11:17:28.631Z,6.28
2022-11-12T11:22:41.414Z,5.50
2022-11-12T11:27:54.757Z,4.85
2022-11-12T11:33:43.119Z,8.15
2022-11-12T11:38:56.287Z,6.65
2022-11-12T11:44:13.804Z,8.57
2022-11-12T11:49:39.324Z,5.50
2022-11-12T11:55:01.321Z,6.55
2022-11-12T12:00:13.911Z,5.65
2022-11-12T12:05:29.672Z,6.72
2022-11-12T12:16:26.653Z,6.35
2022-11-12T12:21:34.328Z,6.25
2022-11-12T12:26:42.452Z,4.20
2022-11-12T12:31:50.504Z,5.55
2022-11-12T12:37:03.135Z,6.43
2022-11-12T12:42:15.620Z,6.55
2022-11-12T12:47:20.833Z,7.70
2022-11-12T12:52:24.890Z,6.88
2022-11-12T12:57:33.492Z,6.43
2022-11-12T13:02:39.762Z,7.75
2022-11-12T13:07:46.725Z,7.32
2022-11-12T13:13:07.621Z,5.70
2022-11-12T13:18:16.901Z,5.78
2022-11-12T13:24:08.547Z,6.15
2022-11-12T13:29:52.717Z,6.63
2022-11-12T13:35:16.065Z,5.33
2022-11-12T13:40:26.518Z,8.75
2022-11-12T13:45:29.204Z,6.85
2022-11-12T13:50:37.808Z,7.97
2022-11-12T13:55:50.725Z,6.47
2022-11-12T14:00:54.748Z,8.70
2022-11-12T14:06:08.696Z,7.70
2022-11-12T14:11:32.186Z,6.97
2022-11-12T14:16:44.971Z,10.02
2022-11-12T14:22:01.143Z,12.15
2022-11-12T14:27:05.200Z,10.88
2022-11-12T14:32:10.506Z,10.27
2022-11-12T14:37:38.211Z,8.48
2022-11-12T14:42:46.338Z,11.75
2022-11-12T14:47:53.931Z,10.60
2022-11-12T14:53:01.466Z,8.63
2022-11-12T14:58:06.514Z,11.73
2022-11-12T15:03:14.309Z,10.57
2022-11-12T15:08:30.531Z,10.95
2022-11-12T15:13:42.547Z,8.98
2022-11-12T15:18:46.451Z,11.02
2022-11-12T15:23:50.337Z,7.35
2022-11-12T15:29:02.122Z,12.25
2022-11-12T15:34:26.958Z,11.10
2022-11-12T15:44:37.655Z,16.52
2022-11-12T15:49:48.552Z,12.10
2022-11-12T15:54:51.642Z,12.88
2022-11-12T16:00:07.727Z,11.70
2022-11-12T16:05:14.171Z,16.85
2022-11-12T16:10:18.668Z,16.15
2022-11-12T16:20:31.755Z,24.33
2022-11-12T16:25:36.877Z,22.92
2022-11-12T16:30:40.971Z,20.63
2022-11-12T16:35:43.653Z,15.93
2022-11-12T16:40:47.002Z,23.63
2022-11-12T16:45:51.807Z,23.67
2022-11-12T16:50:55.237Z,23.88
2022-11-12T16:55:58.350Z,24.33
2022-11-12T17:01:03.093Z,28.00
2022-11-12T17:06:06.699Z,27.48
2022-11-12T17:11:10.238Z,25.20
2022-11-12T17:16:14.491Z,18.77
2022-11-12T17:21:18.968Z,23.55
2022-11-12T17:26:22.861Z,34.58
2022-11-12T17:31:27.172Z,25.48
2022-11-12T17:36:30.007Z,25.58
2022-11-12T17:41:32.602Z,27.60
2022-11-12T17:46:37.403Z,26.75
2022-11-12T17:51:39.926Z,24.88
2022-11-12T17:56:42.589Z,22.52
2022-11-12T18:01:46.468Z,28.85
2022-11-12T18:06:49.093Z,26.75
2022-11-12T18:11:54.159Z,26.42
2022-11-12T18:17:01.209Z,24.23
2022-11-12T18:22:03.777Z,25.55
2022-11-12T18:27:06.329Z,27.33
2022-11-12T18:32:10.208Z,33.38
2022-11-12T18:37:12.859Z,24.48
2022-11-12T18:42:18.019Z,25.73
2022-11-12T18:47:22.023Z,25.45
2022-11-12T18:52:24.583Z,24.73
2022-11-12T18:57:27.142Z,26.30
2022-11-12T19:02:31.307Z,26.10
2022-11-12T19:07:33.862Z,24.38
2022-11-12T19:12:36.937Z,26.92
2022-11-12T19:17:40.896Z,25.90
2022-11-12T19:22:43.478Z,28.38
2022-11-12T19:27:46.258Z,23.30
2022-11-12T19:32:50.225Z,27.65
2022-11-12T19:37:52.773Z,28.65
2022-11-12T19:42:55.331Z,30.00
2022-11-12T19:47:59.356Z,28.15
2022-11-12T19:53:01.890Z,19.77
2022-11-12T19:58:04.437Z,26.20
2022-11-12T20:03:08.459Z,29.00
2022-11-12T20:08:11.037Z,32.00
2022-11-12T20:13:13.680Z,30.13
2022-11-12T20:18:17.871Z,29.58
2022-11-12T20:23:20.459Z,19.75
2022-11-12T20:28:23.028Z,29.48
2022-11-12T20:33:27.434Z,28.98
2022-11-12T20:38:30.582Z,30.15
2022-11-12T20:43:33.807Z,25.88
2022-11-12T20:48:42.840Z,29.10
2022-11-12T20:53:47.120Z,28.98
2022-11-12T20:58:50.752Z,26.58
2022-11-12T21:03:54.767Z,25.87
2022-11-12T21:09:00.153Z,19.92
2022-11-12T21:14:03.806Z,30.27
2022-11-12T21:19:08.141Z,29.17
2022-11-12T21:24:12.838Z,19.30
2022-11-12T21:29:18.749Z,27.00
2022-11-12T21:34:23.006Z,26.40
2022-11-12T21:39:25.560Z,21.15
2022-11-12T21:44:28.164Z,26.55
2022-11-12T21:49:32.086Z,27.50
2022-11-12T21:54:35.399Z,20.40
2022-11-12T21:59:38.011Z,23.95
2022-11-12T22:04:42.315Z,27.05
2022-11-12T22:09:44.870Z,20.65
2022-11-12T22:14:47.406Z,26.90
2022-11-12T22:19:51.426Z,24.17
2022-11-12T22:24:54.495Z,19.60
2022-11-12T22:29:57.056Z,25.08
2022-11-12T22:35:01.042Z,24.88
2022-11-12T22:40:04.692Z,22.30
2022-11-12T22:45:10.867Z,27.52
2022-11-12T22:50:15.329Z,18.88
2022-11-12T22:55:18.142Z,22.80
2022-11-12T23:00:30.615Z,25.85
2022-11-12T23:05:34.524Z,24.48
2022-11-12T23:10:40.462Z,24.25
2022-11-12T23:15:47.719Z,25.17
2022-11-12T23:20:51.671Z,22.90
2022-11-12T23:25:54.469Z,15.70
2022-11-12T23:30:57.048Z,22.08
2022-11-12T23:36:06.842Z,24.42
2022-11-12T23:41:11.668Z,25.70
2022-11-12T23:46:14.348Z,22.27
2022-11-12T23:51:20.264Z,21.20
2022-11-12T23:56:22.822Z,20.27
